createdAt,value
2023-11-03T00:00:07.721Z,8.07
2023-11-03T00:02:36.210Z,7.94
2023-11-03T00:05:09.875Z,7.84
2023-11-03T00:07:38.762Z,8.03
2023-11-03T00:10:11.051Z,7.95
2023-11-03T00:12:40.397Z,7.91
2023-11-03T00:15:11.323Z,7.85
2023-11-03T00:17:39.964Z,7.83
2023-11-03T00:20:09.236Z,7.80
2023-11-03T00:22:37.307Z,7.87
2023-11-03T00:25:12.451Z,7.84
2023-11-03T00:27:40.490Z,7.79
2023-11-03T00:30:10.941Z,7.91
2023-11-03T00:32:39.239Z,7.92
2023-11-03T00:35:09.847Z,7.90
2023-11-03T00:37:38.118Z,7.82
2023-11-03T00:40:09.132Z,7.87
2023-11-03T00:42:37.245Z,7.88
2023-11-03T00:45:06.686Z,7.93
2023-11-03T00:47:36.137Z,7.87
2023-11-03T00:50:04.477Z,7.92
2023-11-03T00:52:32.517Z,7.90
2023-11-03T00:55:00.876Z,7.92
2023-11-03T00:57:30.230Z,7.85
2023-11-03T00:59:58.373Z,7.91
2023-11-03T01:02:27.635Z,7.88
2023-11-03T01:04:57.385Z,7.83
2023-11-03T01:07:25.524Z,7.88
2023-11-03T01:09:53.938Z,7.87
2023-11-03T01:12:31.185Z,7.90
2023-11-03T01:14:59.916Z,8.10
2023-11-03T01:17:28.602Z,8.05
2023-11-03T01:19:58.103Z,8.07
2023-11-03T01:22:26.118Z,8.03
2023-11-03T01:24:54.243Z,8.12
2023-11-03T01:27:22.372Z,7.99
2023-11-03T01:29:53.396Z,7.93
2023-11-03T01:32:21.592Z,7.97
2023-11-03T01:34:49.683Z,7.97
2023-11-03T01:37:19.114Z,7.90
2023-11-03T01:39:47.147Z,7.99
2023-11-03T01:42:15.252Z,7.92
2023-11-03T01:44:46.261Z,7.93
2023-11-03T01:47:14.885Z,7.92
2023-11-03T01:49:43.058Z,7.87
2023-11-03T01:52:11.772Z,7.90
2023-11-03T01:54:41.321Z,7.87
2023-11-03T01:57:10.476Z,7.88
2023-11-03T01:59:38.868Z,7.86
2023-11-03T02:02:08.385Z,7.84
2023-11-03T02:04:36.410Z,7.85
2023-11-03T02:07:04.626Z,7.82
2023-11-03T02:09:33.583Z,7.88
2023-11-03T02:12:03.009Z,7.88
2023-11-03T02:14:31.076Z,7.89
2023-11-03T02:16:59.168Z,7.89
2023-11-03T02:19:27.558Z,7.86
2023-11-03T02:21:55.657Z,7.80
2023-11-03T02:24:25.207Z,7.81
2023-11-03T02:26:53.315Z,7.79
2023-11-03T02:29:21.693Z,7.78
2023-11-03T02:31:49.728Z,7.81
2023-11-03T02:34:17.892Z,7.75
2023-11-03T02:36:46.003Z,7.76
2023-11-03T02:39:15.684Z,7.76
2023-11-03T02:41:45.095Z,7.67
2023-11-03T02:44:13.479Z,7.69
2023-11-03T02:46:45.086Z,7.72
2023-11-03T02:49:13.319Z,7.64
2023-11-03T02:51:41.504Z,7.67
2023-11-03T02:54:09.633Z,7.72
2023-11-03T02:56:37.701Z,7.68
2023-11-03T02:59:07.298Z,7.69
2023-11-03T03:01:38.350Z,7.68
2023-11-03T03:04:07.277Z,7.61
2023-11-03T03:06:36.465Z,7.69
2023-11-03T03:09:04.618Z,7.72
2023-11-03T03:11:32.647Z,7.55
2023-11-03T03:14:00.727Z,7.59
2023-11-03T03:16:30.166Z,7.52
2023-11-03T03:18:58.239Z,7.63
2023-11-03T03:21:26.305Z,7.67
2023-11-03T03:23:54.365Z,7.63
2023-11-03T03:26:22.720Z,7.66
2023-11-03T03:28:50.863Z,7.66
2023-11-03T03:31:20.461Z,7.67
2023-11-03T03:33:51.262Z,7.62
2023-11-03T03:36:19.904Z,7.63
2023-11-03T03:38:48.165Z,7.66
2023-11-03T03:41:17.757Z,7.66
2023-11-03T03:43:46.515Z,7.62
2023-11-03T03:46:14.615Z,7.62
2023-11-03T03:48:42.737Z,7.64
2023-11-03T03:51:12.169Z,7.60
2023-11-03T03:53:40.196Z,7.58
2023-11-03T03:56:08.792Z,7.59
2023-11-03T03:58:39.801Z,7.57
2023-11-03T04:01:09.146Z,7.59
2023-11-03T04:03:38.112Z,7.52
2023-11-03T04:06:06.421Z,7.56
2023-11-03T04:08:36.741Z,7.59
2023-11-03T04:11:05.169Z,7.52
2023-11-03T04:13:33.308Z,7.54
2023-11-03T04:16:01.388Z,7.59
2023-11-03T04:18:29.448Z,7.50
2023-11-03T04:20:57.538Z,7.60
2023-11-03T04:23:25.829Z,7.59
2023-11-03T04:25:55.280Z,7.53
2023-11-03T04:28:23.384Z,7.59
2023-11-03T04:30:51.688Z,7.61
2023-11-03T04:33:19.733Z,7.53
2023-11-03T04:35:47.838Z,7.53
2023-11-03T04:38:15.857Z,7.58
2023-11-03T04:40:43.889Z,7.50
2023-11-03T04:43:13.393Z,7.55
2023-11-03T04:45:41.459Z,7.55
2023-11-03T04:48:09.593Z,7.37
2023-11-03T04:50:37.588Z,7.48
2023-11-03T04:53:05.751Z,7.54
2023-11-03T04:55:34.014Z,7.57
2023-11-03T04:58:02.507Z,7.50
2023-11-03T05:00:32.862Z,7.56
2023-11-03T05:03:01.750Z,7.47
2023-11-03T05:05:33.710Z,7.52
2023-11-03T05:08:01.880Z,7.55
2023-11-03T05:10:31.359Z,7.46
2023-11-03T05:12:59.468Z,7.48
2023-11-03T05:15:27.612Z,7.46
2023-11-03T05:17:57.102Z,7.49
2023-11-03T05:20:25.185Z,7.49
2023-11-03T05:22:53.386Z,7.48
2023-11-03T05:25:22.036Z,7.52
2023-11-03T05:27:50.395Z,7.48
2023-11-03T05:30:18.679Z,7.49
2023-11-03T05:32:46.766Z,7.52
2023-11-03T05:35:16.417Z,7.49
2023-11-03T05:37:44.564Z,7.46
2023-11-03T05:40:13.846Z,7.51
2023-11-03T05:42:42.238Z,7.48
2023-11-03T05:45:11.087Z,7.46
2023-11-03T05:47:39.594Z,7.49
2023-11-03T05:50:09.153Z,7.52
2023-11-03T05:52:38.609Z,7.47
2023-11-03T05:55:07.625Z,7.47
2023-11-03T05:57:35.641Z,7.48
2023-11-03T06:00:09.749Z,7.47
2023-11-03T06:02:38.825Z,7.51
2023-11-03T06:05:08.179Z,7.42
2023-11-03T06:07:36.607Z,7.40
2023-11-03T06:10:06.923Z,7.28
2023-11-03T06:12:35.009Z,7.18
2023-11-03T06:15:03.013Z,7.25
2023-11-03T06:17:31.053Z,7.23
2023-11-03T06:19:59.138Z,7.22
2023-11-03T06:22:27.191Z,7.07
2023-11-03T06:24:55.227Z,7.09
2023-11-03T06:27:24.649Z,7.04
2023-11-03T06:29:52.655Z,7.04
2023-11-03T06:32:20.731Z,6.98
2023-11-03T06:34:48.877Z,7.01
2023-11-03T06:37:16.977Z,6.90
2023-11-03T06:39:45.130Z,6.93
2023-11-03T06:42:13.140Z,6.99
2023-11-03T06:44:42.558Z,6.97
2023-11-03T06:47:10.510Z,6.95
2023-11-03T06:49:38.630Z,6.95
2023-11-03T06:52:07.576Z,6.97
2023-11-03T06:54:35.727Z,6.99
2023-11-03T06:57:03.780Z,6.96
2023-11-03T06:59:31.829Z,6.93
2023-11-03T07:02:01.231Z,6.87
2023-11-03T07:04:29.497Z,6.99
2023-11-03T07:06:57.538Z,6.99
2023-11-03T07:09:25.638Z,6.98
2023-11-03T07:11:54.503Z,6.97
2023-11-03T07:14:22.603Z,6.96
2023-11-03T07:16:54.389Z,7.00
2023-11-03T07:19:24.706Z,7.07
2023-11-03T07:21:53.883Z,7.00
2023-11-03T07:24:23.124Z,6.98
2023-11-03T07:26:51.759Z,7.04
2023-11-03T07:29:19.989Z,7.07
2023-11-03T07:31:48.904Z,7.07
2023-11-03T07:34:17.262Z,7.09
2023-11-03T07:36:46.818Z,7.06
2023-11-03T07:39:15.843Z,7.13
2023-11-03T07:41:44.694Z,7.02
2023-11-03T07:44:13.876Z,7.09
2023-11-03T07:46:42.007Z,7.15
2023-11-03T07:49:10.106Z,7.11
2023-11-03T07:51:38.230Z,7.11
2023-11-03T07:54:08.788Z,7.13
2023-11-03T07:56:37.485Z,7.12
2023-11-03T07:59:06.184Z,7.11
2023-11-03T08:01:34.259Z,7.21
2023-11-03T08:04:02.700Z,7.24
2023-11-03T08:06:30.915Z,7.21
2023-11-03T08:08:58.989Z,7.25
2023-11-03T08:11:28.943Z,7.24
2023-11-03T08:13:57.068Z,7.28
2023-11-03T08:16:25.186Z,7.42
2023-11-03T08:19:00.113Z,7.35
2023-11-03T08:21:28.280Z,7.39
2023-11-03T08:24:01.050Z,7.40
2023-11-03T08:26:31.810Z,7.47
2023-11-03T08:29:04.991Z,7.57
2023-11-03T08:31:36.656Z,7.53
2023-11-03T08:34:11.397Z,7.49
2023-11-03T08:36:45.965Z,7.66
2023-11-03T08:39:24.137Z,7.70
2023-11-03T08:42:01.088Z,7.75
2023-11-03T08:44:29.218Z,7.74
2023-11-03T08:46:57.634Z,7.78
2023-11-03T08:49:26.268Z,7.66
2023-11-03T08:51:55.531Z,7.67
2023-11-03T08:54:23.748Z,7.76
2023-11-03T08:56:51.903Z,7.77
2023-11-03T08:59:21.503Z,7.78
2023-11-03T09:01:55.169Z,7.83
2023-11-03T09:04:23.318Z,7.80
2023-11-03T09:06:52.555Z,7.87
2023-11-03T09:09:20.612Z,7.88
2023-11-03T09:11:48.682Z,7.87
2023-11-03T09:14:17.248Z,8.03
2023-11-03T09:16:46.771Z,7.89
2023-11-03T09:19:14.938Z,7.85
2023-11-03T09:21:42.999Z,7.99
2023-11-03T09:24:11.967Z,7.93
2023-11-03T09:26:40.075Z,7.90
2023-11-03T09:29:08.257Z,8.04
2023-11-03T09:31:36.280Z,7.81
2023-11-03T09:34:06.695Z,8.04
2023-11-03T09:36:34.826Z,7.96
2023-11-03T09:39:05.913Z,8.01
2023-11-03T09:41:40.729Z,7.96
2023-11-03T09:44:09.553Z,7.97
2023-11-03T09:46:39.332Z,8.00
2023-11-03T09:49:09.067Z,8.06
2023-11-03T09:51:40.886Z,8.11
2023-11-03T09:54:09.022Z,8.04
2023-11-03T09:56:38.879Z,8.23
2023-11-03T09:59:08.619Z,8.26
2023-11-03T10:01:38.779Z,8.26
2023-11-03T10:04:10.052Z,8.09
2023-11-03T10:06:39.225Z,8.05
2023-11-03T10:09:08.274Z,8.16
2023-11-03T10:11:37.554Z,8.12
2023-11-03T10:14:07.289Z,8.11
2023-11-03T10:16:35.311Z,8.23
2023-11-03T10:19:05.026Z,8.35
2023-11-03T10:21:36.801Z,8.15
2023-11-03T10:24:05.100Z,8.29
2023-11-03T10:26:33.562Z,8.11
2023-11-03T10:29:05.697Z,8.29
2023-11-03T10:31:34.253Z,8.33
2023-11-03T10:34:02.918Z,8.37
2023-11-03T10:36:32.441Z,8.39
2023-11-03T10:39:02.280Z,8.46
2023-11-03T10:41:30.741Z,8.51
2023-11-03T10:44:00.135Z,8.58
2023-11-03T10:46:37.296Z,8.64
2023-11-03T10:49:13.879Z,8.65
2023-11-03T10:51:50.473Z,8.67
2023-11-03T10:54:33.236Z,8.73
2023-11-03T10:59:35.264Z,8.82
2023-11-03T11:02:08.592Z,8.81
2023-11-03T11:04:44.825Z,9.03
2023-11-03T11:07:19.248Z,8.98
2023-11-03T11:09:50.181Z,9.15
2023-11-03T11:12:18.339Z,9.01
2023-11-03T11:14:47.370Z,9.03
2023-11-03T11:17:19.375Z,9.09
2023-11-03T11:19:48.938Z,9.19
2023-11-03T11:22:20.865Z,9.07
2023-11-03T11:24:53.496Z,9.15
2023-11-03T11:27:23.342Z,9.36
2023-11-03T11:29:52.652Z,9.22
2023-11-03T11:32:31.105Z,9.29
2023-11-03T11:35:00.035Z,9.21
2023-11-03T11:37:30.215Z,9.45
2023-11-03T11:40:01.377Z,9.60
2023-11-03T11:42:31.276Z,9.63
2023-11-03T11:45:00.842Z,9.66
2023-11-03T11:47:30.617Z,9.49
2023-11-03T11:49:59.269Z,9.70
2023-11-03T11:52:30.467Z,9.59
2023-11-03T11:55:03.010Z,9.64
2023-11-03T11:57:38.344Z,9.63
2023-11-03T12:00:08.977Z,9.70
2023-11-03T12:02:37.095Z,9.49
2023-11-03T12:05:05.545Z,9.76
2023-11-03T12:07:35.702Z,9.48
2023-11-03T12:10:05.804Z,9.56
2023-11-03T12:12:33.896Z,9.78
2023-11-03T12:15:04.133Z,9.63
2023-11-03T12:17:32.274Z,9.66
2023-11-03T12:20:00.307Z,9.62
2023-11-03T12:22:29.835Z,9.85
2023-11-03T12:24:58.316Z,9.86
2023-11-03T12:27:31.164Z,9.69
2023-11-03T12:30:04.835Z,9.92
2023-11-03T12:32:37.245Z,9.94
2023-11-03T12:35:11.204Z,9.71
2023-11-03T12:37:45.673Z,9.80
2023-11-03T12:40:23.521Z,9.75
2023-11-03T12:42:57.649Z,9.87
2023-11-03T12:45:27.112Z,9.97
2023-11-03T12:47:58.336Z,9.70
2023-11-03T12:50:32.161Z,9.70
2023-11-03T12:53:05.063Z,9.96
2023-11-03T12:55:35.980Z,9.87
2023-11-03T12:58:12.542Z,9.84
2023-11-03T13:00:41.405Z,9.97
2023-11-03T13:03:09.642Z,9.91
2023-11-03T13:05:37.923Z,9.96
2023-11-03T13:08:06.624Z,9.98
2023-11-03T13:10:36.129Z,9.92
2023-11-03T13:13:06.880Z,9.88
2023-11-03T13:15:36.046Z,9.86
2023-11-03T13:18:04.794Z,10.03
2023-11-03T13:20:32.880Z,10.10
2023-11-03T13:23:03.134Z,9.82
2023-11-03T13:25:31.480Z,9.94
2023-11-03T13:28:00.527Z,10.12
2023-11-03T13:30:30.481Z,10.08
2023-11-03T13:32:58.539Z,10.04
2023-11-03T13:35:27.560Z,10.07
2023-11-03T13:37:55.836Z,10.22
2023-11-03T13:40:25.248Z,10.07
2023-11-03T13:42:56.095Z,10.03
2023-11-03T13:45:24.206Z,10.00
2023-11-03T13:47:53.755Z,10.18
2023-11-03T13:50:24.569Z,10.19
2023-11-03T13:52:53.246Z,10.19
2023-11-03T13:55:23.135Z,10.19
2023-11-03T13:57:53.096Z,10.16
2023-11-03T14:00:22.682Z,10.00
2023-11-03T14:02:51.904Z,10.02
2023-11-03T14:05:22.450Z,10.04
2023-11-03T14:07:53.230Z,9.99
2023-11-03T14:10:25.272Z,9.87
2023-11-03T14:12:54.469Z,9.67
2023-11-03T14:15:28.437Z,9.57
2023-11-03T14:17:58.135Z,9.65
2023-11-03T14:20:34.610Z,9.79
2023-11-03T14:23:05.194Z,9.81
2023-11-03T14:25:33.796Z,9.90
2023-11-03T14:28:04.204Z,9.83
2023-11-03T14:30:35.402Z,9.80
2023-11-03T14:33:07.991Z,9.86
2023-11-03T14:35:39.894Z,9.75
2023-11-03T14:38:13.151Z,9.86
2023-11-03T14:40:44.331Z,9.98
2023-11-03T14:43:17.642Z,10.14
2023-11-03T14:45:48.172Z,10.27
2023-11-03T14:48:21.896Z,10.15
2023-11-03T14:50:56.926Z,10.08
2023-11-03T14:53:27.640Z,10.31
2023-11-03T14:55:56.845Z,10.14
2023-11-03T14:58:26.381Z,10.26
2023-11-03T15:00:56.582Z,10.29
2023-11-03T15:03:27.251Z,10.47
2023-11-03T15:06:04.182Z,10.54
2023-11-03T15:08:34.488Z,10.24
2023-11-03T15:11:06.679Z,10.59
2023-11-03T15:13:36.700Z,10.62
2023-11-03T15:16:10.989Z,10.51
2023-11-03T15:18:40.235Z,10.36
2023-11-03T15:21:14.119Z,10.47
2023-11-03T15:23:42.451Z,10.56
2023-11-03T15:26:10.868Z,10.66
2023-11-03T15:28:39.236Z,10.46
2023-11-03T15:31:11.035Z,10.52
2023-11-03T15:33:40.630Z,10.42
2023-11-03T15:36:13.483Z,10.40
2023-11-03T15:38:41.662Z,10.20
2023-11-03T15:41:09.666Z,10.17
2023-11-03T15:43:39.884Z,10.18
2023-11-03T15:46:33.740Z,10.18
2023-11-03T15:49:03.304Z,10.00
2023-11-03T15:51:32.767Z,9.95
2023-11-03T15:54:01.381Z,9.96
2023-11-03T15:56:29.437Z,9.92
2023-11-03T15:58:57.472Z,9.91
2023-11-03T16:01:25.528Z,9.82
2023-11-03T16:03:53.607Z,9.74
2023-11-03T16:06:21.719Z,9.62
2023-11-03T16:08:51.211Z,9.55
2023-11-03T16:11:19.225Z,9.46
2023-11-03T16:13:47.426Z,9.53
2023-11-03T16:16:15.534Z,9.47
2023-11-03T16:18:43.712Z,9.32
2023-11-03T16:21:11.811Z,9.40
2023-11-03T16:23:39.852Z,9.25
2023-11-03T16:26:10.232Z,9.41
2023-11-03T16:28:38.473Z,9.33
2023-11-03T16:31:09.179Z,9.18
2023-11-03T16:33:37.450Z,9.15
2023-11-03T16:36:06.429Z,9.18
2023-11-03T16:38:34.618Z,9.05
2023-11-03T16:41:02.651Z,8.99
2023-11-03T16:43:32.137Z,8.95
2023-11-03T16:46:00.259Z,8.89
2023-11-03T16:48:32.343Z,8.76
2023-11-03T16:51:01.402Z,8.59
2023-11-03T16:53:32.950Z,8.57
2023-11-03T16:56:04.257Z,8.52
2023-11-03T16:58:36.290Z,8.48
2023-11-03T17:01:05.863Z,8.36
2023-11-03T17:03:34.095Z,8.33
2023-11-03T17:06:03.716Z,8.27
2023-11-03T17:08:33.812Z,8.25
2023-11-03T17:11:02.341Z,8.11
2023-11-03T17:13:30.679Z,8.03
2023-11-03T17:16:00.363Z,8.04
2023-11-03T17:18:28.512Z,7.95
2023-11-03T17:20:56.610Z,7.90
2023-11-03T17:23:24.800Z,7.77
2023-11-03T17:25:52.895Z,7.77
2023-11-03T17:28:23.837Z,7.79
2023-11-03T17:30:52.141Z,7.71
2023-11-03T17:33:21.878Z,7.72
2023-11-03T17:35:49.981Z,7.67
2023-11-03T17:38:18.439Z,7.59
2023-11-03T17:40:46.530Z,7.53
2023-11-03T17:43:17.163Z,7.52
2023-11-03T17:45:46.187Z,7.34
2023-11-03T17:48:14.301Z,7.28
2023-11-03T17:50:46.388Z,7.25
2023-11-03T17:53:14.504Z,7.28
2023-11-03T17:55:42.918Z,7.20
2023-11-03T17:58:11.915Z,7.18
2023-11-03T18:00:40.020Z,7.19
2023-11-03T18:03:08.365Z,7.00
2023-11-03T18:05:37.710Z,6.96
2023-11-03T18:08:07.440Z,6.98
2023-11-03T18:10:35.618Z,6.88
2023-11-03T18:13:03.822Z,6.86
2023-11-03T18:15:31.893Z,6.66
2023-11-03T18:18:00.202Z,6.81
2023-11-03T18:20:28.805Z,6.75
2023-11-03T18:22:57.082Z,6.60
2023-11-03T18:25:27.827Z,6.57
2023-11-03T18:27:55.881Z,6.62
2023-11-03T18:30:26.825Z,6.70
2023-11-03T18:32:56.948Z,6.68
2023-11-03T18:35:26.728Z,6.61
2023-11-03T18:37:55.376Z,6.54
2023-11-03T18:40:28.692Z,6.53
2023-11-03T18:42:59.164Z,6.38
2023-11-03T18:45:28.186Z,6.37
2023-11-03T18:47:57.997Z,6.21
2023-11-03T18:53:00.346Z,5.95
2023-11-03T19:07:22.903Z,6.19
2023-11-03T19:08:25.404Z,6.14
2023-11-03T19:10:53.809Z,6.20
2023-11-03T19:13:23.296Z,6.25
2023-11-03T19:15:52.327Z,6.34
2023-11-03T19:20:49.989Z,6.30
2023-11-03T19:23:18.308Z,6.27
2023-11-03T19:25:47.887Z,6.14
2023-11-03T19:28:18.312Z,6.20
2023-11-03T19:30:48.564Z,6.12
2023-11-03T19:33:17.848Z,6.20
2023-11-03T19:35:50.046Z,6.06
2023-11-03T19:38:21.077Z,6.17
2023-11-03T19:40:50.167Z,6.15
2023-11-03T19:43:18.919Z,6.05
2023-11-03T19:45:49.199Z,6.18
2023-11-03T19:48:17.726Z,6.26
2023-11-03T19:50:47.376Z,6.49
2023-11-03T19:53:17.173Z,6.68
2023-11-03T19:55:49.160Z,6.80
2023-11-03T19:58:17.486Z,6.58
2023-11-03T20:00:49.136Z,6.81
2023-11-03T20:03:19.784Z,6.83
2023-11-03T20:05:47.970Z,6.88
2023-11-03T20:08:16.221Z,6.85
2023-11-03T20:10:46.568Z,6.81
2023-11-03T20:13:16.846Z,6.73
2023-11-03T20:15:45.099Z,6.58
2023-11-03T20:18:13.332Z,6.77
2023-11-03T20:20:42.816Z,6.64
2023-11-03T20:23:11.311Z,6.60
2023-11-03T20:25:39.392Z,6.65
2023-11-03T20:28:07.471Z,6.70
2023-11-03T20:30:35.464Z,6.68
2023-11-03T20:33:03.636Z,6.68
2023-11-03T20:35:31.756Z,6.78
2023-11-03T20:38:01.274Z,6.72
2023-11-03T20:40:29.951Z,6.68
2023-11-03T20:42:58.066Z,6.53
2023-11-03T20:45:27.169Z,6.69
2023-11-03T20:47:55.381Z,6.73
2023-11-03T20:50:24.598Z,6.79
2023-11-03T20:52:53.212Z,6.83
2023-11-03T20:55:23.114Z,6.78
2023-11-03T20:57:51.211Z,6.81
2023-11-03T21:00:20.371Z,6.78
2023-11-03T21:02:49.666Z,6.77
2023-11-03T21:05:21.417Z,6.83
2023-11-03T21:07:50.540Z,6.81
2023-11-03T21:10:18.942Z,6.75
2023-11-03T21:12:48.991Z,6.87
2023-11-03T21:15:18.489Z,6.92
2023-11-03T21:17:50.332Z,6.98
2023-11-03T21:20:22.065Z,7.07
2023-11-03T21:22:51.937Z,7.15
2023-11-03T21:25:20.002Z,7.19
2023-11-03T21:27:49.467Z,7.28
2023-11-03T21:30:17.971Z,7.40
2023-11-03T21:32:46.066Z,7.35
2023-11-03T21:35:14.424Z,7.37
2023-11-03T21:37:42.860Z,7.38
2023-11-03T21:40:16.578Z,7.44
2023-11-03T21:42:47.560Z,7.50
2023-11-03T21:45:18.128Z,7.56
2023-11-03T21:47:49.909Z,7.50
2023-11-03T21:50:18.692Z,7.47
2023-11-03T21:52:50.889Z,7.52
2023-11-03T21:55:19.950Z,7.51
2023-11-03T21:57:49.007Z,7.53
2023-11-03T22:00:21.350Z,7.43
2023-11-03T22:02:49.908Z,7.51
2023-11-03T22:05:18.235Z,7.47
2023-11-03T22:07:46.638Z,7.39
2023-11-03T22:10:14.713Z,7.25
2023-11-03T22:12:42.843Z,7.21
2023-11-03T22:15:11.750Z,7.34
2023-11-03T22:17:49.979Z,7.40
2023-11-03T22:20:24.173Z,7.43
2023-11-03T22:22:52.214Z,7.51
2023-11-03T22:25:21.584Z,7.50
2023-11-03T22:27:50.521Z,7.55
2023-11-03T22:30:18.783Z,7.57
2023-11-03T22:32:49.742Z,7.59
2023-11-03T22:35:19.333Z,7.60
2023-11-03T22:37:48.927Z,7.67
2023-11-03T22:40:17.826Z,7.65
2023-11-03T22:42:47.043Z,7.67
2023-11-03T22:45:15.373Z,7.70
2023-11-03T22:47:46.725Z,7.72
2023-11-03T22:50:18.644Z,7.72
2023-11-03T22:52:46.808Z,7.67
2023-11-03T22:55:15.069Z,7.62
2023-11-03T22:57:43.292Z,7.73
2023-11-03T23:00:14.164Z,7.72
2023-11-03T23:02:42.908Z,7.73
2023-11-03T23:05:11.070Z,7.73
2023-11-03T23:07:40.831Z,7.77
2023-11-03T23:10:13.376Z,7.80
2023-11-03T23:12:42.135Z,7.81
2023-11-03T23:15:11.614Z,7.69
2023-11-03T23:17:41.414Z,7.85
2023-11-03T23:20:13.521Z,7.85
2023-11-03T23:22:43.963Z,7.84
2023-11-03T23:25:14.400Z,7.89
2023-11-03T23:27:44.035Z,7.92
2023-11-03T23:30:14.167Z,7.88
2023-11-03T23:32:42.858Z,7.90
2023-11-03T23:35:11.555Z,7.80
2023-11-03T23:37:39.703Z,7.94
2023-11-03T23:40:10.452Z,7.96
2023-11-03T23:42:39.166Z,7.91
2023-11-03T23:45:07.775Z,8.01
2023-11-03T23:47:37.503Z,8.00
2023-11-03T23:50:08.595Z,8.03
2023-11-03T23:52:36.738Z,8.06
2023-11-03T23:55:06.625Z,8.12
2023-11-03T23:57:36.565Z,8.13
